Aviation Digital Data Service (ADDS)

Output produced by METARs form (1022 UTC 28 July 2015)
found at http://aviationweather.gov/adds/metars/
 
KPHX 280859Z 2809/2906 26008KT P6SM SCT200 
     FM281200 10004KT P6SM SCT200 
     FM281900 29008KT P6SM SCT110 SCT200